KGVE/GVE METAR and TAF weather

Enter ICAO airport designator
Station Type Date Time Source
KGVE METAR 2022/01/25 04:55 UTC NOAA

KGVE 250455Z AUTO 23005KT 10SM BKN090 BKN110 M01/M05 A2981 RMK AO1 T10141046 400651051


Station Type Date Time Source
KGVE Decoded METAR 2022/01/25 04:55 UTC NOAA

Station name not available
Jan 24, 2022 - 11:55 PM EST / 2022.01.25 0455 UTC
Wind: from the SW (230 degrees) at 6 MPH (5 KT):0
Visibility: 10 mile(s):0
Sky conditions: mostly cloudy
Temperature: 29.5 F (-1.4 C)
Windchill: 23 F (-5 C):1
Dew Point: 23.7 F (-4.6 C)
Relative Humidity: 78%
Pressure (altimeter): 29.81 in. Hg (1009 hPa)
ob: KGVE 250455Z AUTO 23005KT 10SM BKN090 BKN110 M01/M05 A2981 RMK AO1 T10141046 400651051
cycle: 5

Station Type Date Time Source
KGVE TAF UTC NOAA

Error!

Example: see airport list